Time;durP1;ratioP1;P1;durP2;ratioP2;P2;SDS_P1;SDS_P2;PMS_P1;PMS_P2;Temp;Humidity;BMP_temperature;BMP_pressure;BME280_temperature;BME280_humidity;BME280_pressure;Samples;Min_cycle;Max_cycle;Signal;HPM_P1;HPM_P2
2022/11/01 00:01:48;;;;;;;;;5.25;4.25;;;;;18.76;59.79;100662.13;4941999;28;46310;-68
2022/11/01 00:04:14;;;;;;;;;3.25;1.50;;;;;18.71;59.50;100670.34;4942452;28;45311;-68
2022/11/01 00:06:39;;;;;;;;;3.00;3.00;;;;;18.65;59.56;100675.97;4941995;28;45184;-68
2022/11/01 00:09:05;;;;;;;;;2.00;2.00;;;;;18.64;59.33;100684.88;4942015;28;45234;-68
2022/11/01 00:11:31;;;;;;;;;2.25;1.75;;;;;18.62;58.91;100700.94;4941770;28;46508;-68
2022/11/01 00:13:56;;;;;;;;;2.00;2.00;;;;;18.62;58.77;100692.09;4942128;28;45330;-68
2022/11/01 00:16:21;;;;;;;;;1.00;1.00;;;;;18.59;58.54;100700.22;4942021;28;45481;-68
2022/11/01 00:18:47;;;;;;;;;3.75;2.50;;;;;18.54;58.55;100692.47;4941993;28;45222;-68
2022/11/01 00:21:13;;;;;;;;;3.00;0.50;;;;;18.52;58.54;100699.66;4941856;28;45469;-69
2022/11/01 00:23:39;;;;;;;;;1.00;1.00;;;;;18.43;58.44;100695.63;4941735;28;45356;-68
2022/11/01 00:26:05;;;;;;;;;3.25;2.25;;;;;18.44;58.20;100705.34;4941675;28;45455;-68
2022/11/01 00:28:32;;;;;;;;;1.00;1.00;;;;;18.42;57.95;100714.34;4941782;28;45301;-68
2022/11/01 00:30:58;;;;;;;;;3.33;1.00;;;;;18.34;58.15;100720.03;4941706;28;45187;-68
2022/11/01 00:33:24;;;;;;;;;3.25;1.00;;;;;18.27;57.82;100703.47;4940480;28;45318;-68
2022/11/01 00:35:50;;;;;;;;;1.00;1.00;;;;;18.27;57.87;100723.91;4940933;28;45171;-68
2022/11/01 00:38:16;;;;;;;;;2.25;1.00;;;;;18.25;56.95;100731.06;4941374;28;45235;-68
2022/11/01 00:40:43;;;;;;;;;0.50;0.00;;;;;18.13;57.49;100725.41;4941516;28;46286;-68
2022/11/01 00:43:10;;;;;;;;;1.00;1.00;;;;;18.08;57.45;100735.38;4941602;28;45415;-68
2022/11/01 00:45:35;;;;;;;;;3.25;0.00;;;;;18.05;57.57;100745.28;4941652;28;45311;-68
2022/11/01 00:48:00;;;;;;;;;0.00;0.00;;;;;17.95;57.10;100740.41;4941397;28;45325;-68
2022/11/01 00:50:26;;;;;;;;;1.25;0.25;;;;;17.96;57.09;100738.59;4940141;28;45338;-68
2022/11/01 00:52:51;;;;;;;;;0.50;0.50;;;;;17.91;56.79;100754.75;4941535;28;45394;-68
2022/11/01 00:55:16;;;;;;;;;1.00;1.00;;;;;17.85;56.49;100758.53;4940344;28;45564;-68
2022/11/01 00:57:45;;;;;;;;;1.75;0.00;;;;;17.80;56.12;100762.31;4941439;28;45485;-69
2022/11/01 01:00:13;;;;;;;;;0.25;0.00;;;;;17.71;56.25;100766.25;4941227;28;45303;-68
2022/11/01 01:02:39;;;;;;;;;2.50;0.25;;;;;17.64;56.10;100770.94;4941342;28;45307;-68
2022/11/01 01:05:05;;;;;;;;;0.00;0.00;;;;;17.61;56.26;100778.19;4941406;28;45318;-68
2022/11/01 01:07:30;;;;;;;;;0.50;0.50;;;;;17.55;56.07;100777.53;4939909;28;46124;-69
2022/11/01 01:09:56;;;;;;;;;3.00;0.00;;;;;17.50;56.13;100792.78;4941033;28;45258;-69
2022/11/01 01:12:23;;;;;;;;;0.75;0.75;;;;;17.42;56.31;100794.94;4941259;28;45424;-68
2022/11/01 01:14:48;;;;;;;;;2.00;1.50;;;;;17.42;56.00;100804.66;4941335;28;45314;-69
2022/11/01 01:17:14;;;;;;;;;4.00;0.00;;;;;17.37;56.20;100805.75;4941105;28;45219;-69
2022/11/01 01:19:39;;;;;;;;;0.00;0.00;;;;;17.33;56.01;100813.88;4940999;28;45725;-69
2022/11/01 01:22:05;;;;;;;;;3.00;0.25;;;;;17.29;56.17;100817.59;4941208;28;45196;-69
2022/11/01 01:24:31;;;;;;;;;2.75;1.00;;;;;17.27;56.19;100838.91;4941161;28;45269;-68
2022/11/01 01:26:56;;;;;;;;;2.00;0.00;;;;;17.21;56.39;100824.09;4941166;28;45234;-69
2022/11/01 01:29:21;;;;;;;;;1.50;1.50;;;;;17.19;56.24;100835.69;4940522;28;50377;-69
2022/11/01 01:31:49;;;;;;;;;1.50;0.50;;;;;17.16;56.27;100849.09;4941288;28;45581;-69
2022/11/01 01:34:14;;;;;;;;;4.00;3.00;;;;;17.15;56.24;100840.25;4941158;28;45401;-68
2022/11/01 01:36:39;;;;;;;;;1.00;1.00;;;;;17.10;56.13;100852.00;4940988;28;45318;-69
2022/11/01 01:39:05;;;;;;;;;2.25;1.25;;;;;17.06;56.18;100856.56;4940600;28;47342;-69
2022/11/01 01:44:48;;;;;;;;;1.75;0.50;;;;;16.95;55.69;100882.66;4940433;28;45270;-66
2022/11/01 01:47:34;;;;;;;;;3.00;0.00;;;;;16.89;55.69;100873.09;4943210;28;45508;-68
2022/11/01 01:50:14;;;;;;;;;1.00;0.00;;;;;16.86;55.63;100867.94;4943888;28;45244;-68
2022/11/01 01:52:51;;;;;;;;;0.00;0.00;;;;;16.80;55.41;100871.66;4943975;28;45342;-69
2022/11/01 01:55:23;;;;;;;;;1.75;1.00;;;;;16.74;55.13;100880.75;4944293;28;45262;-69
2022/11/01 01:57:51;;;;;;;;;0.00;0.00;;;;;16.70;55.52;100883.56;4943671;28;45467;-68
2022/11/01 02:00:17;;;;;;;;;0.00;0.00;;;;;16.60;54.96;100890.13;4943701;28;45338;-69
2022/11/01 02:02:43;;;;;;;;;1.00;0.00;;;;;16.57;55.29;100889.31;4944049;28;45481;-68
2022/11/01 02:05:15;;;;;;;;;0.00;0.00;;;;;16.52;54.88;100899.22;4943982;28;45254;-67
2022/11/01 02:07:43;;;;;;;;;1.50;1.00;;;;;16.48;55.25;100908.22;4943806;28;45259;-68
2022/11/01 02:10:10;;;;;;;;;0.75;0.75;;;;;16.44;55.00;100909.28;4943435;28;45244;-68
2022/11/01 02:12:36;;;;;;;;;1.00;0.00;;;;;16.41;54.76;100912.91;4943744;28;45511;-68
2022/11/01 02:15:12;;;;;;;;;1.75;1.00;;;;;16.37;55.07;100913.06;4943882;28;45237;-68
2022/11/01 02:18:05;;;;;;;;;1.50;0.00;;;;;16.32;55.19;100921.16;4943684;28;45555;-68
2022/11/01 02:20:38;;;;;;;;;0.75;0.75;;;;;16.28;55.04;100911.59;4943341;28;48186;-68
2022/11/01 02:23:12;;;;;;;;;1.00;1.00;;;;;16.25;54.67;100909.91;4943345;28;45244;-68
2022/11/01 02:25:52;;;;;;;;;0.50;0.50;;;;;16.20;54.95;100918.94;4943633;28;45390;-68
2022/11/01 02:28:42;;;;;;;;;4.50;1.50;;;;;16.12;55.11;100927.16;4943552;28;45489;-68
2022/11/01 02:31:50;;;;;;;;;2.25;1.00;;;;;16.03;55.14;100941.59;4942038;28;47667;-68
2022/11/01 02:34:31;;;;;;;;;1.50;0.25;;;;;15.98;55.48;100929.44;4942582;28;45252;-68
2022/11/01 02:37:28;;;;;;;;;2.50;0.00;;;;;15.98;54.87;100926.78;4942278;28;45338;-68
2022/11/01 02:40:05;;;;;;;;;0.00;0.00;;;;;15.86;55.06;100936.88;4934629;28;45305;-68
2022/11/01 02:42:44;;;;;;;;;3.75;0.25;;;;;15.85;55.10;100942.25;4943283;28;45377;-68
2022/11/01 02:45:27;;;;;;;;;1.50;0.00;;;;;15.80;55.32;100960.88;4943515;28;45298;-68
2022/11/01 02:47:57;;;;;;;;;3.00;1.00;;;;;15.76;55.21;100953.97;4943257;28;45354;-69
2022/11/01 02:50:25;;;;;;;;;0.25;0.25;;;;;15.65;55.37;100941.06;4941684;28;45343;-68
2022/11/01 02:52:51;;;;;;;;;1.25;0.50;;;;;15.65;55.12;100951.66;4942898;28;45232;-68
2022/11/01 02:55:28;;;;;;;;;0.25;0.25;;;;;15.65;55.14;100956.09;4943039;28;45270;-68
2022/11/01 02:57:57;;;;;;;;;1.75;0.25;;;;;15.57;54.93;100951.91;4942444;28;45325;-68
2022/11/01 03:00:31;;;;;;;;;1.00;0.25;;;;;15.55;55.08;100966.13;4942941;28;45609;-68
2022/11/01 03:03:06;;;;;;;;;0.00;0.00;;;;;15.48;55.08;100967.22;4943080;28;45533;-68
2022/11/01 03:05:56;;;;;;;;;1.50;0.00;;;;;15.45;55.08;100965.53;4943087;28;45364;-67
2022/11/01 03:08:26;;;;;;;;;0.00;0.00;;;;;15.41;55.38;100969.19;4942794;28;45396;-68
2022/11/01 03:11:09;;;;;;;;;0.50;0.50;;;;;15.38;55.18;100971.91;4943036;28;45418;-67
2022/11/01 03:13:43;;;;;;;;;2.00;1.00;;;;;15.33;55.45;100985.28;4942808;28;45339;-68
2022/11/01 03:16:36;;;;;;;;;0.00;0.00;;;;;15.28;55.56;100988.09;4942793;28;45515;-68
2022/11/01 03:19:26;;;;;;;;;0.50;0.25;;;;;15.28;55.72;100997.78;4942990;28;45188;-68
2022/11/01 03:21:57;;;;;;;;;0.75;0.75;;;;;15.27;55.20;101006.69;4932236;28;45446;-68
2022/11/01 03:24:30;;;;;;;;;1.50;1.00;;;;;15.21;55.79;101007.72;4942519;28;45297;-68
2022/11/01 03:27:06;;;;;;;;;2.00;2.00;;;;;15.17;55.58;100999.91;4942425;28;45336;-68
2022/11/01 03:29:36;;;;;;;;;0.25;0.25;;;;;15.19;55.79;101011.31;4941471;28;45357;-69
2022/11/01 03:32:02;;;;;;;;;2.75;0.00;;;;;15.14;55.61;101019.38;4942584;28;45321;-68
2022/11/01 03:34:31;;;;;;;;;0.00;0.00;;;;;15.15;55.61;101025.56;4942275;28;45307;-68
2022/11/01 03:37:03;;;;;;;;;1.00;1.00;;;;;15.13;55.38;101033.53;4942292;28;45361;-68
2022/11/01 03:39:39;;;;;;;;;3.00;0.75;;;;;15.09;55.58;101024.81;4942681;28;45235;-69
2022/11/01 03:42:10;;;;;;;;;1.00;1.00;;;;;15.09;55.64;101038.06;4942401;28;45283;-68
2022/11/01 03:44:42;;;;;;;;;3.75;1.75;;;;;15.06;55.57;101047.84;4942493;28;45449;-68
2022/11/01 03:47:08;;;;;;;;;2.00;0.00;;;;;15.00;55.74;101040.09;4942098;28;45379;-66
2022/11/01 03:49:34;;;;;;;;;1.00;0.00;;;;;15.02;55.77;101051.47;4942466;28;45457;-68
2022/11/01 03:51:59;;;;;;;;;1.00;1.00;;;;;14.99;55.52;101055.09;4942038;28;45405;-68
2022/11/01 03:54:26;;;;;;;;;1.25;1.00;;;;;15.01;55.64;101063.84;4942259;28;45378;-68
2022/11/01 03:56:51;;;;;;;;;0.25;0.00;;;;;15.00;55.59;101067.41;4942008;28;45350;-68
2022/11/01 03:59:16;;;;;;;;;0.50;0.00;;;;;14.98;55.96;101066.59;4942342;28;45520;-68
2022/11/01 04:01:42;;;;;;;;;2.00;2.00;;;;;14.97;56.16;101069.28;4942265;28;45322;-68
2022/11/01 04:04:07;;;;;;;;;2.75;1.00;;;;;14.94;56.08;101091.38;4941024;28;46941;-68
2022/11/01 04:06:32;;;;;;;;;2.00;2.00;;;;;14.91;55.66;101091.47;4941904;28;51198;-68
2022/11/01 04:08:58;;;;;;;;;3.25;2.00;;;;;14.92;56.04;101099.38;4941091;28;45194;-67
2022/11/01 04:11:23;;;;;;;;;0.50;0.50;;;;;14.90;56.18;101103.81;4940431;28;45460;-68
2022/11/01 04:13:48;;;;;;;;;0.50;0.50;;;;;14.88;55.82;101099.50;4942061;28;45429;-68
2022/11/01 04:21:42;;;;;;;;;1.50;0.75;;;;;14.79;55.93;101120.00;4930162;28;45379;-68
2022/11/01 04:24:08;;;;;;;;;0.00;0.00;;;;;14.79;55.86;101124.41;4941524;28;46023;-68
2022/11/01 04:26:34;;;;;;;;;1.25;0.75;;;;;14.78;56.02;101123.56;4940534;28;45606;-69
2022/11/01 04:28:59;;;;;;;;;5.25;2.50;;;;;14.78;56.11;101139.44;4940463;28;45176;-68
2022/11/01 04:31:34;;;;;;;;;1.00;0.00;;;;;14.74;56.33;101140.41;4941787;28;45576;-68
2022/11/01 04:34:00;;;;;;;;;2.00;1.50;;;;;14.74;56.32;101152.75;4941662;28;45555;-68
2022/11/01 04:36:27;;;;;;;;;2.00;0.00;;;;;14.75;55.91;101151.84;4940322;28;45356;-68
2022/11/01 04:38:54;;;;;;;;;0.50;0.50;;;;;14.73;56.53;101146.59;4941524;28;45251;-68
2022/11/01 04:41:21;;;;;;;;;0.50;0.00;;;;;14.70;56.24;101156.41;4941607;28;45465;-68
2022/11/01 04:43:48;;;;;;;;;1.75;1.25;;;;;14.67;56.29;101167.06;4941317;28;46190;-68
2022/11/01 04:46:14;;;;;;;;;3.00;0.00;;;;;14.67;56.60;101175.84;4941737;28;45199;-68
2022/11/01 04:48:40;;;;;;;;;3.50;1.00;;;;;14.65;56.53;101169.72;4940118;28;45330;-68
2022/11/01 04:51:05;;;;;;;;;4.25;1.75;;;;;14.63;56.48;101174.16;4941720;28;45227;-68
2022/11/01 04:53:31;;;;;;;;;3.00;2.25;;;;;14.63;56.25;101180.31;4941257;28;46076;-68
2022/11/01 04:55:56;;;;;;;;;2.00;1.00;;;;;14.59;56.21;101178.66;4941560;28;45333;-68
2022/11/01 04:58:21;;;;;;;;;2.00;2.00;;;;;14.50;56.24;101165.63;4941487;28;45220;-67
2022/11/01 05:00:47;;;;;;;;;3.25;1.25;;;;;14.56;56.21;101186.66;4941547;28;45221;-67
2022/11/01 05:03:12;;;;;;;;;3.00;2.00;;;;;14.54;56.28;101187.59;4941366;28;46340;-67
2022/11/01 05:05:38;;;;;;;;;4.75;1.75;;;;;14.54;56.73;101195.53;4941579;28;45389;-67
2022/11/01 05:08:09;;;;;;;;;3.00;0.50;;;;;14.52;56.15;101202.66;4941265;28;45409;-68
2022/11/01 05:10:37;;;;;;;;;2.75;0.75;;;;;14.52;56.45;101203.50;4941393;28;45263;-67
2022/11/01 05:13:03;;;;;;;;;4.50;2.25;;;;;14.52;56.44;101210.59;4941104;28;46265;-68
2022/11/01 05:15:28;;;;;;;;;5.25;3.50;;;;;14.52;56.07;101214.06;4941181;28;45410;-68
2022/11/01 05:17:54;;;;;;;;;9.25;4.50;;;;;14.51;56.66;101211.47;4941123;28;45349;-68
2022/11/01 05:20:19;;;;;;;;;4.50;2.75;;;;;14.49;56.43;101215.91;4941455;28;45448;-68
2022/11/01 05:22:44;;;;;;;;;2.75;2.75;;;;;14.47;56.14;101221.25;4944175;28;46526;-68
2022/11/01 05:25:10;;;;;;;;;2.00;1.00;;;;;14.46;56.23;101224.78;4943223;28;45342;-68
2022/11/01 05:27:36;;;;;;;;;4.75;2.50;;;;;14.41;56.87;101222.25;4944503;28;45616;-68
2022/11/01 05:30:03;;;;;;;;;2.25;2.25;;;;;14.34;56.99;101223.31;4944533;28;45454;-68
2022/11/01 05:32:28;;;;;;;;;3.50;1.75;;;;;14.34;56.65;101222.41;4944200;28;45894;-68
2022/11/01 05:34:53;;;;;;;;;4.50;2.00;;;;;14.31;56.93;101220.72;4944509;28;45244;-68
2022/11/01 05:37:19;;;;;;;;;1.25;1.25;;;;;14.29;56.48;101231.34;4944195;28;45560;-68
2022/11/01 05:39:44;;;;;;;;;0.50;0.50;;;;;14.24;56.96;101220.00;4944588;28;45469;-68
2022/11/01 05:42:09;;;;;;;;;8.25;4.00;;;;;14.21;57.08;101230.63;4944079;28;45249;-67
2022/11/01 05:44:35;;;;;;;;;3.00;3.00;;;;;14.17;57.33;101226.31;4926864;28;51967;-68
2022/11/01 05:47:04;;;;;;;;;1.75;1.75;;;;;14.15;57.35;101228.13;4944272;28;45367;-68
2022/11/01 05:49:30;;;;;;;;;4.25;2.00;;;;;14.12;56.95;101229.06;4944033;28;45427;-68
2022/11/01 05:51:55;;;;;;;;;2.75;0.25;;;;;14.09;56.99;101223.84;4943701;28;45369;-68
2022/11/01 05:54:20;;;;;;;;;6.25;2.00;;;;;14.05;57.14;101230.09;4944119;28;45317;-68
2022/11/01 05:56:45;;;;;;;;;6.00;2.50;;;;;14.06;57.03;101226.56;4944028;28;45419;-67
2022/11/01 05:59:11;;;;;;;;;3.25;0.75;;;;;14.08;57.44;101232.66;4943845;28;51649;-68
2022/11/01 06:01:36;;;;;;;;;1.00;1.00;;;;;14.03;57.07;101238.97;4943797;28;45377;-68
2022/11/01 06:04:02;;;;;;;;;1.75;1.00;;;;;14.00;57.43;101245.19;4944073;28;45331;-68
2022/11/01 06:06:31;;;;;;;;;4.00;2.25;;;;;13.95;57.54;101237.34;4943981;28;45240;-68
2022/11/01 06:08:57;;;;;;;;;5.50;2.00;;;;;13.92;57.48;101242.69;4943735;28;45179;-68
2022/11/01 06:11:24;;;;;;;;;5.75;2.00;;;;;13.92;57.72;101240.06;4943585;28;45582;-68
2022/11/01 06:13:57;;;;;;;;;1.50;1.00;;;;;13.88;57.96;101254.19;4943763;28;45573;-68
2022/11/01 06:16:24;;;;;;;;;4.50;1.75;;;;;13.85;57.43;101250.75;4942449;28;45313;-68
2022/11/01 06:18:49;;;;;;;;;3.00;2.00;;;;;13.83;58.04;101253.41;4943536;28;45294;-68
2022/11/01 06:21:15;;;;;;;;;3.00;1.50;;;;;13.84;57.70;101249.03;4943432;28;45832;-68
2022/11/01 06:23:45;;;;;;;;;5.00;2.00;;;;;13.83;57.38;101258.72;4943649;28;45375;-69
2022/11/01 06:26:10;;;;;;;;;4.25;0.25;;;;;13.83;57.91;101258.72;4943614;28;45299;-68
2022/11/01 06:28:35;;;;;;;;;1.25;0.50;;;;;13.85;57.95;101262.19;4942197;28;45723;-68
2022/11/01 06:31:03;;;;;;;;;4.75;1.25;;;;;13.86;57.45;101263.94;4943328;28;46124;-68
2022/11/01 06:33:29;;;;;;;;;5.00;1.50;;;;;13.84;57.88;101271.03;4942462;28;45286;-68
2022/11/01 06:35:54;;;;;;;;;2.00;2.00;;;;;13.79;58.03;101273.75;4943491;28;45240;-68
2022/11/01 06:38:20;;;;;;;;;5.00;1.50;;;;;13.78;57.34;101271.13;4943076;28;45460;-68
2022/11/01 06:40:46;;;;;;;;;4.25;2.75;;;;;13.75;57.49;101272.06;4942093;28;46698;-68
2022/11/01 06:43:11;;;;;;;;;3.00;3.00;;;;;13.76;57.72;101280.84;4943487;28;45356;-68
2022/11/01 06:45:37;;;;;;;;;3.25;1.00;;;;;13.76;57.60;101284.38;4943618;28;45343;-68
2022/11/01 06:48:02;;;;;;;;;4.00;1.25;;;;;13.73;57.64;101279.13;4943131;28;45487;-68
2022/11/01 06:50:27;;;;;;;;;5.00;1.75;;;;;13.67;57.81;101283.66;4941817;28;46570;-68
2022/11/01 06:52:59;;;;;;;;;1.75;0.00;;;;;13.63;58.15;101275.81;4943229;28;45204;-68
2022/11/01 06:55:27;;;;;;;;;7.00;2.00;;;;;13.64;58.21;101290.75;4943085;28;45480;-69
2022/11/01 06:57:57;;;;;;;;;8.25;3.00;;;;;13.59;58.15;101295.25;4943090;28;45385;-68
2022/11/01 07:00:23;;;;;;;;;1.25;1.25;;;;;13.60;58.21;101288.22;4942917;28;46369;-68
2022/11/01 07:03:00;;;;;;;;;3.00;1.25;;;;;13.63;58.19;101298.69;4941323;28;45441;-68
2022/11/01 07:05:27;;;;;;;;;2.00;1.75;;;;;13.62;58.17;101303.13;4943276;28;45350;-69
2022/11/01 07:07:53;;;;;;;;;2.50;2.00;;;;;13.64;57.76;101306.59;4942750;28;45514;-69
2022/11/01 07:10:19;;;;;;;;;6.50;1.75;;;;;13.67;57.71;101312.72;4942795;28;45215;-68
2022/11/01 07:12:44;;;;;;;;;4.00;1.00;;;;;13.67;57.48;101307.44;4942658;28;45352;-68
2022/11/01 07:15:10;;;;;;;;;2.00;2.00;;;;;13.65;58.16;101307.47;4943199;28;45223;-68
2022/11/01 07:17:35;;;;;;;;;3.00;2.00;;;;;13.64;57.73;101314.50;4942843;28;45420;-68
2022/11/01 07:20:00;;;;;;;;;8.25;2.75;;;;;13.63;58.18;101315.44;4942783;28;45830;-68
2022/11/01 07:22:26;;;;;;;;;4.50;1.50;;;;;13.60;57.78;101312.84;4942573;28;45260;-68
2022/11/01 07:24:51;;;;;;;;;3.25;1.50;;;;;13.58;58.21;101311.97;4943016;28;45414;-68
2022/11/01 07:27:16;;;;;;;;;4.25;2.75;;;;;13.61;57.75;101321.63;4942865;28;45280;-68
2022/11/01 07:29:42;;;;;;;;;3.00;2.00;;;;;13.59;58.43;101336.63;4942517;28;45394;-68
2022/11/01 07:32:07;;;;;;;;;6.00;2.00;;;;;13.62;58.21;101339.19;4942816;28;45250;-68
2022/11/01 07:34:32;;;;;;;;;4.75;4.00;;;;;13.62;57.76;101342.72;4942766;28;45163;-68
2022/11/01 07:36:57;;;;;;;;;2.00;2.00;;;;;13.65;58.12;101341.81;4942502;28;45309;-68
2022/11/01 07:39:25;;;;;;;;;4.25;3.25;;;;;13.63;58.37;101349.75;4942436;28;46192;-69
2022/11/01 07:41:53;;;;;;;;;4.25;1.00;;;;;13.62;58.32;101344.50;4941065;28;45430;-68
2022/11/01 07:44:18;;;;;;;;;4.00;1.75;;;;;13.59;58.44;101348.06;4942165;28;45314;-68
2022/11/01 07:46:43;;;;;;;;;5.00;1.00;;;;;13.62;58.59;101348.03;4942385;28;45207;-68
2022/11/01 07:49:08;;;;;;;;;4.00;2.00;;;;;13.67;58.49;101357.63;4941951;28;49436;-68
2022/11/01 07:51:34;;;;;;;;;3.50;2.00;;;;;13.61;58.12;101348.03;4942076;28;52285;-69
2022/11/01 07:53:59;;;;;;;;;3.25;3.25;;;;;13.68;58.07;101357.59;4942232;28;45314;-68
2022/11/01 07:56:24;;;;;;;;;4.25;2.00;;;;;13.65;58.14;101357.66;4942354;28;45188;-68
2022/11/01 07:58:50;;;;;;;;;4.75;2.00;;;;;13.67;58.40;101362.91;4942060;28;46033;-68
2022/11/01 08:01:15;;;;;;;;;3.00;2.00;;;;;13.71;58.25;101364.59;4942218;28;52622;-68
2022/11/01 08:03:40;;;;;;;;;3.00;2.00;;;;;13.74;58.38;101369.84;4942294;28;45184;-69
2022/11/01 08:06:06;;;;;;;;;3.00;3.00;;;;;13.73;58.49;101368.09;4942192;28;45206;-68
2022/11/01 08:08:31;;;;;;;;;1.25;1.00;;;;;13.74;58.81;101373.31;4941777;28;45804;-68
2022/11/01 08:11:00;;;;;;;;;1.25;1.25;;;;;13.75;58.25;101363.66;4941958;28;45283;-68
2022/11/01 08:13:26;;;;;;;;;2.75;2.00;;;;;13.78;58.78;101366.22;4942095;28;45385;-68
2022/11/01 08:15:53;;;;;;;;;3.25;1.50;;;;;13.84;58.39;101381.13;4942073;28;45328;-68
2022/11/01 08:18:23;;;;;;;;;2.00;2.00;;;;;13.86;58.68;101372.25;4941880;28;46167;-67
2022/11/01 08:20:49;;;;;;;;;4.50;2.25;;;;;13.89;58.70;101376.63;4941609;28;45329;-68
2022/11/01 08:23:15;;;;;;;;;6.75;3.25;;;;;13.92;58.60;101369.50;4941841;28;45337;-67
2022/11/01 08:25:40;;;;;;;;;4.75;3.75;;;;;14.02;58.37;101374.63;4941771;28;45262;-68
2022/11/01 08:28:09;;;;;;;;;6.50;3.00;;;;;14.07;58.62;101378.03;4941728;28;45553;-67
2022/11/01 08:30:37;;;;;;;;;6.25;3.75;;;;;14.10;58.24;101372.69;4941685;28;45226;-67
2022/11/01 08:33:03;;;;;;;;;2.00;1.25;;;;;14.16;58.31;101377.00;4941882;28;45293;-67
2022/11/01 08:35:29;;;;;;;;;3.50;0.75;;;;;14.18;58.29;101378.72;4941843;28;45485;-68
2022/11/01 08:37:55;;;;;;;;;3.00;2.75;;;;;14.25;58.36;101374.16;4941244;28;46202;-67
2022/11/01 08:40:21;;;;;;;;;4.50;1.50;;;;;14.34;58.50;101368.72;4941509;28;45301;-67
2022/11/01 08:42:47;;;;;;;;;7.00;2.75;;;;;14.36;58.35;101371.31;4941755;28;45461;-68
2022/11/01 08:45:13;;;;;;;;;6.75;3.50;;;;;14.46;57.99;101378.16;4941538;28;45495;-67
2022/11/01 08:47:39;;;;;;;;;3.75;1.75;;;;;14.51;57.83;101378.06;4941415;28;46134;-68
2022/11/01 08:50:07;;;;;;;;;6.00;3.00;;;;;14.60;57.91;101368.19;4941398;28;45188;-67
2022/11/01 08:52:32;;;;;;;;;5.75;2.50;;;;;14.67;57.87;101379.53;4941437;28;45307;-67
2022/11/01 08:54:58;;;;;;;;;2.75;2.25;;;;;14.75;57.91;101374.97;4941294;28;45620;-67
2022/11/01 08:57:23;;;;;;;;;3.50;1.25;;;;;14.77;58.12;101380.22;4944515;28;46734;-68
2022/11/01 08:59:48;;;;;;;;;1.25;1.25;;;;;14.86;57.94;101366.78;4944807;28;45321;-67
2022/11/01 09:02:14;;;;;;;;;3.00;2.50;;;;;14.93;57.79;101370.13;4945053;28;45298;-67
2022/11/01 09:04:39;;;;;;;;;2.00;1.50;;;;;15.00;57.92;101366.47;4944742;28;45485;-67
2022/11/01 09:07:05;;;;;;;;;4.75;1.75;;;;;14.96;57.76;101359.50;4944614;28;46117;-66
2022/11/01 09:09:30;;;;;;;;;3.75;1.25;;;;;15.05;57.55;101364.56;4944642;28;45323;-67
2022/11/01 09:11:55;;;;;;;;;3.25;2.25;;;;;15.10;57.49;101375.94;4944632;28;45306;-67
2022/11/01 09:14:23;;;;;;;;;2.25;1.50;;;;;15.20;57.70;101376.59;4943424;28;46130;-67
2022/11/01 09:16:49;;;;;;;;;2.25;1.00;;;;;15.22;57.46;101372.13;4944461;28;46501;-67
2022/11/01 09:19:15;;;;;;;;;3.00;1.00;;;;;15.34;57.52;101370.97;4944388;28;45394;-67
2022/11/01 09:21:43;;;;;;;;;6.00;1.75;;;;;15.43;57.26;101370.75;4944640;28;45395;-67
2022/11/01 09:24:10;;;;;;;;;4.50;2.00;;;;;15.48;57.13;101375.06;4944574;28;45489;-67
2022/11/01 09:26:36;;;;;;;;;3.75;2.00;;;;;15.53;57.11;101370.53;4944395;28;46370;-67
2022/11/01 09:29:01;;;;;;;;;3.50;2.50;;;;;15.62;56.98;101377.38;4944312;28;45400;-67
2022/11/01 09:31:27;;;;;;;;;1.75;0.00;;;;;15.69;56.90;101377.16;4943692;28;45243;-67
2022/11/01 09:33:57;;;;;;;;;3.25;1.50;;;;;15.82;56.82;101382.19;4944371;28;45624;-67
2022/11/01 09:36:23;;;;;;;;;2.50;1.75;;;;;15.84;56.81;101397.13;4944258;28;45249;-68
2022/11/01 09:38:49;;;;;;;;;4.00;1.00;;;;;15.89;56.96;101395.22;4943935;28;45509;-68
2022/11/01 09:41:41;;;;;;;;;2.00;2.00;;;;;15.95;56.65;101388.03;4944483;28;45246;-67
2022/11/01 09:44:14;;;;;;;;;5.00;2.00;;;;;16.02;56.86;101385.16;4944337;28;45183;-68
2022/11/01 09:46:47;;;;;;;;;3.75;2.00;;;;;16.16;56.49;101406.03;4944207;28;45318;-67
2022/11/01 09:49:22;;;;;;;;;3.00;2.00;;;;;16.20;56.97;101399.72;4944090;28;45275;-67
2022/11/01 09:51:48;;;;;;;;;4.75;2.00;;;;;16.28;56.85;101403.97;4943970;28;45323;-66
2022/11/01 09:54:16;;;;;;;;;4.75;2.00;;;;;16.33;56.64;101394.94;4944134;28;45271;-67
2022/11/01 09:57:12;;;;;;;;;3.00;2.00;;;;;16.46;56.42;101395.47;4943591;28;46396;-67
2022/11/01 09:59:50;;;;;;;;;5.75;5.00;;;;;16.54;56.56;101403.22;4943923;28;45525;-67
2022/11/01 10:02:37;;;;;;;;;3.50;3.00;;;;;16.58;56.38;101412.84;4944125;28;45333;-66
2022/11/01 10:05:38;;;;;;;;;2.00;2.00;;;;;16.66;56.49;101399.34;4943941;28;45410;-66
2022/11/01 10:08:29;;;;;;;;;5.50;2.75;;;;;16.74;56.20;101408.81;4943465;28;45486;-67
2022/11/01 10:11:16;;;;;;;;;2.00;1.75;;;;;16.81;56.39;101398.03;4943711;28;45239;-66
2022/11/01 10:14:03;;;;;;;;;2.00;1.00;;;;;16.86;56.21;101396.09;4943949;28;45448;-66
2022/11/01 10:16:37;;;;;;;;;2.75;0.00;;;;;16.96;56.05;101410.00;4943621;28;45315;-65
2022/11/01 10:19:14;;;;;;;;;2.50;2.25;;;;;17.06;55.93;101419.44;4943793;28;45522;-66
2022/11/01 10:21:43;;;;;;;;;1.25;1.00;;;;;17.11;55.87;101401.56;4930746;28;45545;-66
2022/11/01 10:24:37;;;;;;;;;1.00;0.00;;;;;17.22;55.60;101406.53;4943708;28;45274;-67
2022/11/01 10:27:25;;;;;;;;;1.75;1.50;;;;;17.26;55.50;101413.50;4943578;28;45343;-67
2022/11/01 10:30:01;;;;;;;;;3.25;1.00;;;;;17.32;55.41;101410.66;4943386;28;45303;-66
2022/11/01 10:32:45;;;;;;;;;4.50;1.00;;;;;17.41;55.60;101400.63;4942056;28;45288;-66
2022/11/01 10:35:15;;;;;;;;;1.75;1.00;;;;;17.44;55.21;101406.72;4943722;28;45307;-66
2022/11/01 10:38:06;;;;;;;;;4.00;3.00;;;;;17.54;55.05;101408.16;4942920;28;45464;-65
2022/11/01 10:40:37;;;;;;;;;3.25;1.50;;;;;17.63;54.75;101417.59;4942987;28;46207;-66
2022/11/01 10:43:12;;;;;;;;;4.00;2.25;;;;;17.71;54.50;101407.59;4943407;28;45352;-66
2022/11/01 10:45:38;;;;;;;;;2.75;2.75;;;;;17.73;54.21;101417.31;4943365;28;45391;-66
2022/11/01 10:48:04;;;;;;;;;2.75;2.00;;;;;17.76;54.35;101402.13;4942934;28;45504;-66
2022/11/01 10:50:29;;;;;;;;;2.00;1.00;;;;;17.82;53.95;101396.63;4942929;28;46231;-66
2022/11/01 10:53:05;;;;;;;;;3.00;1.75;;;;;17.84;54.11;101405.38;4943138;28;45268;-66
2022/11/01 10:55:43;;;;;;;;;0.50;0.50;;;;;17.90;53.70;101396.34;4943108;28;45357;-66
2022/11/01 10:58:27;;;;;;;;;5.50;3.00;;;;;17.89;54.00;101399.91;4943004;28;45567;-66
2022/11/01 11:00:53;;;;;;;;;5.50;1.50;;;;;17.93;54.05;101398.88;4941835;28;47249;-66
2022/11/01 11:03:23;;;;;;;;;4.75;2.00;;;;;17.97;53.60;101415.63;4943026;28;45421;-66
2022/11/01 11:05:51;;;;;;;;;1.75;1.00;;;;;18.05;53.65;101389.66;4943048;28;45220;-66
2022/11/01 11:08:19;;;;;;;;;3.75;0.75;;;;;18.05;53.92;101392.31;4942608;28;45332;-66
2022/11/01 11:10:45;;;;;;;;;3.50;1.25;;;;;18.11;53.46;101383.25;4942702;28;45400;-66
2022/11/01 11:13:15;;;;;;;;;1.25;1.25;;;;;18.20;53.77;101390.91;4942595;28;45317;-67
2022/11/01 11:15:43;;;;;;;;;4.75;2.75;;;;;18.24;53.45;101394.31;4942891;28;45227;-66
2022/11/01 11:18:30;;;;;;;;;3.25;1.75;;;;;18.23;53.44;101384.63;4942060;28;45319;-67
2022/11/01 11:20:59;;;;;;;;;5.00;2.50;;;;;18.36;53.61;101383.22;4942351;28;46665;-66
2022/11/01 11:23:29;;;;;;;;;3.75;1.00;;;;;18.43;53.46;101381.22;4942648;28;45189;-67
2022/11/01 11:26:07;;;;;;;;;3.25;2.00;;;;;18.52;53.57;101383.53;4942596;28;45403;-67
2022/11/01 11:28:41;;;;;;;;;4.50;2.50;;;;;18.58;53.58;101390.41;4942524;28;45328;-67
2022/11/01 11:31:17;;;;;;;;;1.00;1.00;;;;;18.60;53.45;101367.28;4942369;28;46899;-66
2022/11/01 11:33:52;;;;;;;;;0.25;0.25;;;;;18.68;53.20;101384.69;4942756;28;45263;-66
2022/11/01 11:36:37;;;;;;;;;4.50;0.25;;;;;18.78;52.98;101376.34;4942690;28;45562;-66
2022/11/01 11:39:03;;;;;;;;;2.50;2.00;;;;;18.81;53.09;101373.56;4941283;28;45412;-67
2022/11/01 11:41:32;;;;;;;;;5.75;2.00;;;;;18.88;52.89;101385.72;4942412;28;46408;-69
2022/11/01 11:43:58;;;;;;;;;5.50;1.25;;;;;18.95;53.01;101381.91;4942115;28;45493;-67